Time;durP1;ratioP1;P1;durP2;ratioP2;P2;SDS_P1;SDS_P2;PMS_P1;PMS_P2;Temp;Humidity;BMP_temperature;BMP_pressure;BME280_temperature;BME280_humidity;BME280_pressure;Samples;Min_cycle;Max_cycle;Signal;HPM_P1;HPM_P2
2023/01/18 00:02:17;;;;;;;;;1.00;1.00;;;;;;;;5066044;28;13429;-70
2023/01/18 00:04:42;;;;;;;;;0.75;0.00;;;;;;;;5066802;28;13313;-70
2023/01/18 00:07:07;;;;;;;;;3.00;1.00;;;;;;;;5066292;28;13347;-70
2023/01/18 00:09:32;;;;;;;;;1.00;1.00;;;;;;;;5066000;28;13527;-70
2023/01/18 00:11:58;;;;;;;;;0.00;0.00;;;;;;;;5069645;28;8780;-70
2023/01/18 00:14:23;;;;;;;;;2.00;2.00;;;;;;;;5066044;28;13465;-70
2023/01/18 00:16:48;;;;;;;;;2.00;0.50;;;;;;;;5066331;28;13359;-70
2023/01/18 00:19:13;;;;;;;;;0.25;0.25;;;;;;;;5066172;28;13466;-70
2023/01/18 00:21:39;;;;;;;;;1.25;0.00;;;;;;;;5066621;28;13400;-71
2023/01/18 00:24:09;;;;;;;;;5.00;1.00;;;;;;;;5066139;28;13516;-71
2023/01/18 00:26:35;;;;;;;;;0.00;0.00;;;;;;;;5048216;28;13359;-74
2023/01/18 00:29:00;;;;;;;;;0.00;0.00;;;;;;;;5069160;28;12138;-69
2023/01/18 00:31:25;;;;;;;;;0.50;0.00;;;;;;;;5066163;28;13336;-68
2023/01/18 00:33:51;;;;;;;;;0.00;0.00;;;;;;;;5068899;28;9510;-69
2023/01/18 00:36:16;;;;;;;;;1.00;1.00;;;;;;;;5065818;28;13321;-69
2023/01/18 00:38:42;;;;;;;;;1.00;0.00;;;;;;;;5069090;28;8796;-70
2023/01/18 00:41:13;;;;;;;;;0.00;0.00;;;;;;;;5066694;28;13379;-69
2023/01/18 00:43:38;;;;;;;;;0.00;0.00;;;;;;;;5066277;28;13535;-70
2023/01/18 00:46:14;;;;;;;;;0.00;0.00;;;;;;;;5068944;28;11479;-70
2023/01/18 00:48:40;;;;;;;;;5.50;0.00;;;;;;;;5069154;28;8824;-70
2023/01/18 00:51:10;;;;;;;;;0.00;0.00;;;;;;;;5068899;28;11541;-68
2023/01/18 00:53:36;;;;;;;;;0.00;0.00;;;;;;;;5069141;28;11391;-69
2023/01/18 00:56:02;;;;;;;;;0.50;0.00;;;;;;;;5066194;28;13401;-68
2023/01/18 00:58:27;;;;;;;;;1.75;0.75;;;;;;;;5068872;28;11464;-69
2023/01/18 01:00:53;;;;;;;;;1.00;1.00;;;;;;;;5065689;28;13334;-69
2023/01/18 01:03:19;;;;;;;;;0.00;0.00;;;;;;;;5066000;28;13697;-70
2023/01/18 01:08:28;;;;;;;;;0.25;0.00;;;;;;;;5068816;28;11394;-70
2023/01/18 01:11:03;;;;;;;;;0.00;0.00;;;;;;;;5050788;28;11440;-70
2023/01/18 01:27:10;;;;;;;;;1.00;0.00;;;;;;;;5065728;28;13313;-69
2023/01/18 01:29:35;;;;;;;;;0.00;0.00;;;;;;;;5068561;28;8781;-70
2023/01/18 01:32:02;;;;;;;;;1.00;1.00;;;;;;;;5047215;28;14004;-70
2023/01/18 01:34:28;;;;;;;;;1.00;1.00;;;;;;;;5065515;28;13348;-69
2023/01/18 01:36:53;;;;;;;;;5.00;1.00;;;;;;;;5065482;28;13371;-70
2023/01/18 01:39:19;;;;;;;;;0.00;0.00;;;;;;;;5071258;28;8784;-70
2023/01/18 01:41:44;;;;;;;;;0.50;0.00;;;;;;;;5072143;28;9529;-70
2023/01/18 01:44:18;;;;;;;;;1.00;0.00;;;;;;;;5072286;28;8811;-70
2023/01/18 01:46:49;;;;;;;;;0.00;0.00;;;;;;;;5068875;28;13370;-70
2023/01/18 01:49:20;;;;;;;;;0.00;0.00;;;;;;;;5072257;28;8772;-70
2023/01/18 01:51:46;;;;;;;;;0.00;0.00;;;;;;;;5071908;28;11429;-70
2023/01/18 01:54:35;;;;;;;;;1.00;0.00;;;;;;;;5072171;28;11086;-70
2023/01/18 01:57:04;;;;;;;;;0.00;0.00;;;;;;;;5061123;28;13322;-70
2023/01/18 01:59:30;;;;;;;;;0.00;0.00;;;;;;;;5072033;28;11402;-70
2023/01/18 02:01:56;;;;;;;;;0.00;0.00;;;;;;;;5071695;28;11439;-70
2023/01/18 02:04:21;;;;;;;;;0.00;0.00;;;;;;;;5069278;28;13386;-70
2023/01/18 02:06:46;;;;;;;;;0.00;0.00;;;;;;;;5071883;28;8914;-70
2023/01/18 02:09:13;;;;;;;;;0.00;0.00;;;;;;;;5071687;28;8906;-70
2023/01/18 02:11:39;;;;;;;;;0.25;0.00;;;;;;;;5071976;28;8857;-70
2023/01/18 02:14:07;;;;;;;;;0.00;0.00;;;;;;;;5071709;28;11508;-70
2023/01/18 02:16:47;;;;;;;;;0.00;0.00;;;;;;;;5071808;28;11419;-69
2023/01/18 02:19:12;;;;;;;;;1.00;0.00;;;;;;;;5071413;28;11563;-70
2023/01/18 02:21:52;;;;;;;;;0.00;0.00;;;;;;;;5071248;28;12111;-70
2023/01/18 02:24:29;;;;;;;;;0.25;0.00;;;;;;;;5071771;28;9522;-69
2023/01/18 02:27:04;;;;;;;;;1.00;1.00;;;;;;;;5068275;28;13335;-70
2023/01/18 02:29:41;;;;;;;;;2.00;1.00;;;;;;;;5068061;28;13337;-69
2023/01/18 02:32:07;;;;;;;;;0.00;0.00;;;;;;;;5068334;28;13355;-71
2023/01/18 02:34:40;;;;;;;;;0.00;0.00;;;;;;;;5068072;28;14020;-70
2023/01/18 02:37:24;;;;;;;;;1.60;1.00;;;;;;;;5068060;28;13352;-69
2023/01/18 02:40:04;;;;;;;;;0.00;0.00;;;;;;;;5071346;28;8765;-71
2023/01/18 02:48:08;;;;;;;;;5.00;2.00;;;;;;;;5067565;28;13347;-70
2023/01/18 02:50:33;;;;;;;;;0.00;0.00;;;;;;;;5071002;28;8823;-69
2023/01/18 02:52:58;;;;;;;;;4.50;1.00;;;;;;;;5049498;28;14269;-70
2023/01/18 02:55:26;;;;;;;;;0.00;0.00;;;;;;;;5067928;28;14100;-70
2023/01/18 02:57:55;;;;;;;;;0.00;0.00;;;;;;;;5070871;28;8783;-71
2023/01/18 03:00:22;;;;;;;;;0.00;0.00;;;;;;;;5070887;28;11429;-70
2023/01/18 03:02:48;;;;;;;;;0.50;0.00;;;;;;;;5070790;28;11533;-70
2023/01/18 03:05:14;;;;;;;;;0.50;0.00;;;;;;;;5070781;28;11412;-69
2023/01/18 03:07:44;;;;;;;;;0.00;0.00;;;;;;;;5052499;28;11596;-70
2023/01/18 03:10:10;;;;;;;;;0.00;0.00;;;;;;;;5068011;28;13324;-70
2023/01/18 03:12:48;;;;;;;;;0.00;0.00;;;;;;;;5070610;28;11392;-69
2023/01/18 03:15:16;;;;;;;;;0.25;0.00;;;;;;;;5070479;28;11392;-70
2023/01/18 03:17:46;;;;;;;;;0.00;0.00;;;;;;;;5070483;28;11531;-70
2023/01/18 03:20:14;;;;;;;;;0.00;0.00;;;;;;;;5070405;28;11526;-71
2023/01/18 03:25:44;;;;;;;;;0.00;0.00;;;;;;;;5067642;28;13320;-70
2023/01/18 03:34:03;;;;;;;;;0.75;0.00;;;;;;;;5067246;28;14172;-70
2023/01/18 03:36:33;;;;;;;;;1.20;1.20;;;;;;;;5066645;28;13394;-70
2023/01/18 03:39:10;;;;;;;;;1.00;1.00;;;;;;;;5065943;28;13413;-70
2023/01/18 03:41:39;;;;;;;;;0.00;0.00;;;;;;;;5069969;28;8796;-69
2023/01/18 03:44:13;;;;;;;;;2.00;1.75;;;;;;;;5048846;28;13691;-70
2023/01/18 03:46:39;;;;;;;;;0.00;0.00;;;;;;;;5069906;28;8794;-69
2023/01/18 03:49:05;;;;;;;;;0.00;0.00;;;;;;;;5051697;28;11527;-70
2023/01/18 03:51:49;;;;;;;;;1.00;1.00;;;;;;;;5066587;28;13359;-70
2023/01/18 03:54:21;;;;;;;;;1.00;1.00;;;;;;;;5066506;28;14028;-70
2023/01/18 03:56:46;;;;;;;;;1.00;1.00;;;;;;;;5066580;28;13517;-70
2023/01/18 03:59:12;;;;;;;;;1.00;1.00;;;;;;;;5066312;28;13371;-70
2023/01/18 04:01:38;;;;;;;;;0.50;0.50;;;;;;;;5069084;28;8923;-70
2023/01/18 04:04:03;;;;;;;;;1.00;0.00;;;;;;;;5069426;28;11594;-70
2023/01/18 04:06:29;;;;;;;;;0.00;0.00;;;;;;;;5069591;28;8772;-68
2023/01/18 04:08:55;;;;;;;;;2.25;1.25;;;;;;;;5066220;28;13409;-70
2023/01/18 04:11:20;;;;;;;;;0.00;0.00;;;;;;;;5069460;28;8800;-70
2023/01/18 04:13:45;;;;;;;;;0.00;0.00;;;;;;;;5066207;28;13332;-70
2023/01/18 04:16:11;;;;;;;;;0.25;0.25;;;;;;;;5068264;28;8788;-70
2023/01/18 04:18:36;;;;;;;;;2.33;2.33;;;;;;;;5064938;28;13331;-70
2023/01/18 04:21:01;;;;;;;;;0.00;0.00;;;;;;;;5066173;28;14031;-70
2023/01/18 04:23:27;;;;;;;;;0.25;0.25;;;;;;;;5066239;28;13354;-69
2023/01/18 04:25:52;;;;;;;;;5.00;3.00;;;;;;;;5047706;28;13546;-69
2023/01/18 04:28:26;;;;;;;;;1.00;1.00;;;;;;;;5066072;28;13373;-70
2023/01/18 04:30:52;;;;;;;;;2.20;2.20;;;;;;;;5065738;28;13469;-69
2023/01/18 04:33:19;;;;;;;;;7.00;5.20;;;;;;;;5065663;28;13976;-70
2023/01/18 04:35:44;;;;;;;;;4.25;1.75;;;;;;;;5065952;28;13361;-70
2023/01/18 04:38:09;;;;;;;;;0.00;0.00;;;;;;;;5068983;28;11522;-70
2023/01/18 04:40:35;;;;;;;;;2.00;2.00;;;;;;;;5065976;28;13346;-70
2023/01/18 04:43:00;;;;;;;;;2.50;1.00;;;;;;;;5066083;28;13397;-69
2023/01/18 04:45:25;;;;;;;;;4.00;0.00;;;;;;;;5069164;28;8791;-70
2023/01/18 04:47:51;;;;;;;;;2.00;2.00;;;;;;;;5065248;28;14063;-70
2023/01/18 04:50:16;;;;;;;;;3.00;2.00;;;;;;;;5047499;28;13356;-70
2023/01/18 04:52:41;;;;;;;;;0.00;0.00;;;;;;;;5069158;28;8811;-70
2023/01/18 04:55:07;;;;;;;;;1.50;0.00;;;;;;;;5069625;28;8796;-70
2023/01/18 04:57:32;;;;;;;;;0.00;0.00;;;;;;;;5070179;28;9514;-70
2023/01/18 04:59:59;;;;;;;;;2.50;1.50;;;;;;;;5066405;28;14358;-70
2023/01/18 05:02:24;;;;;;;;;1.00;0.00;;;;;;;;5069647;28;8827;-71
2023/01/18 05:04:50;;;;;;;;;0.00;0.00;;;;;;;;5066013;28;13331;-70
2023/01/18 05:07:15;;;;;;;;;1.00;1.00;;;;;;;;5065890;28;13988;-71
2023/01/18 05:09:40;;;;;;;;;1.00;1.00;;;;;;;;5065704;28;13354;-71
2023/01/18 05:12:05;;;;;;;;;2.00;1.00;;;;;;;;5065125;28;13373;-71
2023/01/18 05:14:31;;;;;;;;;1.00;0.00;;;;;;;;5072080;28;8806;-70
2023/01/18 05:16:56;;;;;;;;;1.00;0.00;;;;;;;;5072737;28;8792;-70
2023/01/18 05:19:21;;;;;;;;;0.00;0.00;;;;;;;;5051089;28;14243;-70
2023/01/18 05:21:46;;;;;;;;;1.33;1.33;;;;;;;;5069511;28;13346;-71
2023/01/18 05:24:12;;;;;;;;;3.00;2.00;;;;;;;;5069227;28;13202;-70
2023/01/18 05:26:37;;;;;;;;;0.25;0.00;;;;;;;;5072575;28;9445;-71
2023/01/18 05:29:02;;;;;;;;;2.00;1.00;;;;;;;;5068913;28;13366;-71
2023/01/18 05:31:27;;;;;;;;;0.50;0.00;;;;;;;;5069426;28;13454;-71
2023/01/18 05:33:55;;;;;;;;;2.00;1.00;;;;;;;;5069160;28;13325;-70
2023/01/18 05:36:20;;;;;;;;;1.00;1.00;;;;;;;;5068971;28;14198;-70
2023/01/18 05:38:46;;;;;;;;;0.00;0.00;;;;;;;;5072241;28;8796;-70
2023/01/18 05:41:11;;;;;;;;;0.75;0.00;;;;;;;;5069359;28;13369;-70
2023/01/18 05:43:37;;;;;;;;;0.00;0.00;;;;;;;;5069283;28;14047;-70
2023/01/18 05:46:03;;;;;;;;;2.00;0.00;;;;;;;;5071970;28;8941;-70
2023/01/18 05:48:28;;;;;;;;;0.60;0.40;;;;;;;;5068945;28;13999;-70
2023/01/18 05:50:54;;;;;;;;;0.00;0.00;;;;;;;;5071820;28;8776;-70
2023/01/18 05:53:20;;;;;;;;;3.00;2.00;;;;;;;;5068813;28;13376;-70
2023/01/18 05:55:45;;;;;;;;;;;;;;;;;;5074445;28;8871;-70
2023/01/18 05:58:10;;;;;;;;;0.00;0.00;;;;;;;;5071895;28;8776;-70
2023/01/18 06:00:36;;;;;;;;;0.00;0.00;;;;;;;;5068791;28;13407;-71
2023/01/18 06:03:01;;;;;;;;;0.00;0.00;;;;;;;;5071543;28;8932;-72
2023/01/18 06:05:27;;;;;;;;;0.00;0.00;;;;;;;;5072107;28;8784;-71
2023/01/18 06:07:52;;;;;;;;;0.00;0.00;;;;;;;;5068307;28;13374;-69
2023/01/18 06:10:17;;;;;;;;;6.50;0.50;;;;;;;;5068621;28;13357;-68
2023/01/18 06:12:43;;;;;;;;;2.00;2.00;;;;;;;;5068237;28;13388;-68
2023/01/18 06:15:09;;;;;;;;;0.00;0.00;;;;;;;;5068478;28;13472;-70
2023/01/18 06:17:34;;;;;;;;;1.00;1.00;;;;;;;;5068452;28;13368;-72
2023/01/18 06:20:00;;;;;;;;;0.00;0.00;;;;;;;;5068972;28;13344;-72
2023/01/18 06:22:25;;;;;;;;;1.00;1.00;;;;;;;;5068374;28;13419;-69
2023/01/18 06:24:50;;;;;;;;;1.00;1.00;;;;;;;;5067707;28;13321;-71
2023/01/18 06:27:16;;;;;;;;;1.00;1.00;;;;;;;;5068097;28;13294;-73
2023/01/18 06:29:41;;;;;;;;;2.00;0.00;;;;;;;;5068037;28;13524;-71
2023/01/18 06:32:06;;;;;;;;;0.00;0.00;;;;;;;;5071322;28;8911;-72
2023/01/18 06:34:32;;;;;;;;;1.75;1.00;;;;;;;;5068174;28;14230;-71
2023/01/18 06:36:57;;;;;;;;;0.00;0.00;;;;;;;;5050196;28;13486;-72
2023/01/18 06:39:22;;;;;;;;;0.50;0.00;;;;;;;;5071673;28;9569;-72
2023/01/18 06:41:48;;;;;;;;;1.00;0.00;;;;;;;;5068204;28;13387;-71
2023/01/18 06:44:14;;;;;;;;;1.50;0.00;;;;;;;;5071377;28;8965;-69
2023/01/18 06:46:41;;;;;;;;;0.00;0.00;;;;;;;;5071034;28;11505;-69
2023/01/18 06:49:06;;;;;;;;;0.75;0.00;;;;;;;;5071178;28;8792;-70
2023/01/18 06:51:32;;;;;;;;;0.25;0.25;;;;;;;;5070885;28;11465;-71
2023/01/18 06:53:57;;;;;;;;;0.00;0.00;;;;;;;;5070702;28;8816;-70
2023/01/18 06:56:25;;;;;;;;;2.00;2.00;;;;;;;;5067599;28;13390;-71
2023/01/18 06:58:56;;;;;;;;;2.00;2.00;;;;;;;;5067340;28;13989;-72
2023/01/18 07:01:21;;;;;;;;;3.50;2.25;;;;;;;;5067231;28;13339;-73
2023/01/18 07:03:46;;;;;;;;;1.50;1.00;;;;;;;;5067984;28;13451;-73
2023/01/18 07:06:12;;;;;;;;;1.33;1.33;;;;;;;;5067509;28;13402;-70
2023/01/18 07:08:38;;;;;;;;;2.50;1.50;;;;;;;;5067229;28;13420;-71
2023/01/18 07:11:05;;;;;;;;;2.00;0.00;;;;;;;;5070748;28;8785;-72
2023/01/18 07:13:30;;;;;;;;;1.25;0.00;;;;;;;;5066598;28;10956;-72
2023/01/18 07:15:58;;;;;;;;;2.75;0.00;;;;;;;;5067280;28;13369;-72
2023/01/18 07:18:24;;;;;;;;;0.00;0.00;;;;;;;;5066658;28;13362;-72
2023/01/18 07:20:59;;;;;;;;;0.00;0.00;;;;;;;;5070393;28;11400;-72
2023/01/18 07:23:25;;;;;;;;;2.00;1.00;;;;;;;;5067300;28;14174;-74
2023/01/18 07:25:56;;;;;;;;;0.00;0.00;;;;;;;;5070194;28;11391;-73
2023/01/18 07:28:22;;;;;;;;;3.40;1.20;;;;;;;;5062850;28;13409;-73
2023/01/18 07:30:47;;;;;;;;;0.00;0.00;;;;;;;;5069609;28;8788;-75
2023/01/18 07:33:13;;;;;;;;;0.00;0.00;;;;;;;;5069778;28;8907;-75
2023/01/18 07:35:38;;;;;;;;;0.00;0.00;;;;;;;;5069027;28;8784;-76
2023/01/18 07:38:03;;;;;;;;;1.67;1.67;;;;;;;;5048604;28;13422;-74
2023/01/18 07:40:29;;;;;;;;;0.50;0.50;;;;;;;;5069173;28;8830;-73
2023/01/18 07:42:57;;;;;;;;;2.00;0.00;;;;;;;;5074480;28;8832;-74
2023/01/18 07:45:22;;;;;;;;;1.00;1.00;;;;;;;;5068594;28;13362;-74
2023/01/18 07:47:48;;;;;;;;;2.00;0.00;;;;;;;;5067959;28;14113;-74
2023/01/18 07:50:14;;;;;;;;;1.50;0.00;;;;;;;;5086623;28;13432;-73
2023/01/18 07:54:59;;;;;;;;;;;;;;;;;;5085233;28;13570;-72
2023/01/18 07:57:24;;;;;;;;;13.75;11.00;;;;;;;;5085723;28;8795;-72
2023/01/18 07:59:49;;;;;;;;;;;;;;;;;;5070130;28;9020;-72
2023/01/18 08:02:15;;;;;;;;;3.20;3.20;;;;;;;;5078548;28;7544;-74
2023/01/18 08:04:40;;;;;;;;;4.75;2.50;;;;;;;;5077796;28;8844;-74
2023/01/18 08:07:05;;;;;;;;;;;;;;;;;;5073520;28;8825;-73
2023/01/18 08:09:34;;;;;;;;;0.00;0.00;;;;;;;;5067102;28;7539;-73
2023/01/18 08:11:59;;;;;;;;;;;;;;;;;;5087556;28;8799;-73
2023/01/18 08:14:24;;;;;;;;;;;;;;;;;;5087789;28;7531;-74
2023/01/18 08:16:49;;;;;;;;;;;;;;;;;;5088962;28;8799;-75
2023/01/18 08:19:15;;;;;;;;;0.00;0.00;;;;;;;;5086110;28;8991;-73
2023/01/18 08:21:40;;;;;;;;;1.00;0.00;;;;;;;;5074741;28;8828;-72
2023/01/18 08:24:06;;;;;;;;;1.00;0.50;;;;;;;;5083154;28;11441;-73
2023/01/18 08:26:33;;;;;;;;;1.00;0.00;;;;;;;;5084707;28;8826;-76
2023/01/18 08:28:58;;;;;;;;;0.00;0.00;;;;;;;;5085830;28;8968;-72
2023/01/18 08:31:23;;;;;;;;;0.00;0.00;;;;;;;;5085697;28;11459;-72
2023/01/18 08:33:49;;;;;;;;;0.00;0.00;;;;;;;;5085624;28;8858;-72
2023/01/18 08:36:15;;;;;;;;;;;;;;;;;;5087947;28;8916;-73
2023/01/18 08:38:40;;;;;;;;;0.00;0.00;;;;;;;;5085696;28;8809;-73
2023/01/18 08:41:05;;;;;;;;;;;;;;;;;;5087771;28;8778;-73
2023/01/18 08:43:30;;;;;;;;;;;;;;;;;;5087844;28;8795;-72
2023/01/18 08:45:56;;;;;;;;;0.00;0.00;;;;;;;;5083938;28;7546;-74
2023/01/18 08:48:21;;;;;;;;;0.00;0.00;;;;;;;;5082616;28;14124;-73
2023/01/18 08:50:46;;;;;;;;;;;;;;;;;;5087512;28;8806;-71
2023/01/18 08:53:12;;;;;;;;;;;;;;;;;;5085672;28;8942;-72
2023/01/18 08:55:39;;;;;;;;;1.00;0.00;;;;;;;;5079817;28;7559;-72
2023/01/18 08:58:04;;;;;;;;;;;;;;;;;;5086566;28;8910;-72
2023/01/18 09:00:29;;;;;;;;;;;;;;;;;;5085850;28;7604;-72
2023/01/18 09:02:54;;;;;;;;;;;;;;;;;;5085118;28;7536;-72
2023/01/18 09:05:20;;;;;;;;;0.00;0.00;;;;;;;;5069931;28;8991;-78
2023/01/18 09:07:46;;;;;;;;;;;;;;;;;;5073869;28;9529;-71
2023/01/18 09:10:11;;;;;;;;;;;;;;;;;;5073441;28;8810;-73
2023/01/18 09:12:36;;;;;;;;;;;;;;;;;;5072254;28;7540;-72
2023/01/18 09:15:01;;;;;;;;;;;;;;;;;;5072579;28;7528;-73
2023/01/18 09:17:26;;;;;;;;;;;;;;;;;;5072507;28;7521;-71
2023/01/18 09:19:53;;;;;;;;;;;;;;;;;;5071844;28;7512;-72
2023/01/18 09:22:18;;;;;;;;;;;;;;;;;;5072808;28;7636;-73
2023/01/18 09:24:43;;;;;;;;;;;;;;;;;;5072580;28;8818;-74
2023/01/18 09:27:08;;;;;;;;;;;;;;;;;;5072230;28;7548;-73
2023/01/18 09:29:33;;;;;;;;;;;;;;;;;;5073709;28;8949;-72
2023/01/18 09:31:59;;;;;;;;;;;;;;;;;;5073708;28;8803;-72
2023/01/18 09:34:24;;;;;;;;;;;;;;;;;;5072619;28;7532;-73
2023/01/18 09:36:50;;;;;;;;;0.00;0.00;;;;;;;;5069268;28;7533;-72
2023/01/18 09:39:16;;;;;;;;;;;;;;;;;;5070619;28;9668;-73
2023/01/18 09:41:41;;;;;;;;;;;;;;;;;;5073558;28;9509;-72
2023/01/18 09:44:06;;;;;;;;;;;;;;;;;;5073074;28;9035;-71
2023/01/18 09:46:32;;;;;;;;;;;;;;;;;;5072524;28;7533;-73
2023/01/18 09:48:57;;;;;;;;;;;;;;;;;;5072080;28;8812;-72
2023/01/18 09:51:22;;;;;;;;;;;;;;;;;;5071931;28;7524;-71
2023/01/18 09:53:53;;;;;;;;;0.00;0.00;;;;;;;;5050291;28;7537;-71
2023/01/18 09:56:39;;;;;;;;;0.60;0.60;;;;;;;;5047218;28;13695;-68
2023/01/18 09:59:04;;;;;;;;;1.00;0.00;;;;;;;;5050196;28;8891;-69
2023/01/18 10:01:30;;;;;;;;;;;;;;;;;;5062113;28;11476;-73
2023/01/18 10:03:55;;;;;;;;;;;;;;;;;;5070692;28;7630;-73
2023/01/18 10:06:20;;;;;;;;;;;;;;;;;;5073065;28;8819;-73
2023/01/18 10:08:45;;;;;;;;;;;;;;;;;;5072267;28;7537;-69
2023/01/18 10:11:11;;;;;;;;;;;;;;;;;;5070764;28;7578;-73
2023/01/18 10:13:36;;;;;;;;;;;;;;;;;;5062740;28;7545;-72
2023/01/18 10:16:02;;;;;;;;;0.00;0.00;;;;;;;;5064371;28;7529;-70
2023/01/18 10:18:27;;;;;;;;;;;;;;;;;;5072227;28;8795;-73
2023/01/18 10:20:55;;;;;;;;;;;;;;;;;;5071726;28;7536;-69
2023/01/18 10:23:20;;;;;;;;;;;;;;;;;;5070106;28;8095;-71
2023/01/18 10:25:45;;;;;;;;;;;;;;;;;;5071533;28;9633;-72
2023/01/18 10:28:11;;;;;;;;;0.00;0.00;;;;;;;;5068388;28;9017;-71
2023/01/18 10:30:36;;;;;;;;;;;;;;;;;;5070687;28;8834;-72
2023/01/18 10:33:02;;;;;;;;;;;;;;;;;;5070112;28;7544;-72
2023/01/18 10:35:27;;;;;;;;;;;;;;;;;;5068995;28;7535;-72
2023/01/18 10:37:53;;;;;;;;;;;;;;;;;;5069381;28;8838;-72
2023/01/18 10:40:18;;;;;;;;;;;;;;;;;;5068128;28;9541;-72
2023/01/18 10:42:45;;;;;;;;;0.00;0.00;;;;;;;;5067248;28;7529;-73
2023/01/18 10:45:11;;;;;;;;;0.00;0.00;;;;;;;;5067387;28;8822;-72
2023/01/18 10:47:36;;;;;;;;;0.00;0.00;;;;;;;;5048427;28;11474;-71
2023/01/18 10:50:11;;;;;;;;;0.00;0.00;;;;;;;;5049779;28;11437;-72
2023/01/18 10:52:36;;;;;;;;;0.00;0.00;;;;;;;;5048140;28;9613;-71
2023/01/18 10:55:02;;;;;;;;;;;;;;;;;;5050413;28;11417;-72
2023/01/18 10:57:27;;;;;;;;;;;;;;;;;;5051723;28;8809;-72
2023/01/18 10:59:53;;;;;;;;;1.40;0.00;;;;;;;;5049163;28;9524;-72
2023/01/18 11:02:24;;;;;;;;;0.00;0.00;;;;;;;;5048187;28;8817;-72
2023/01/18 11:04:56;;;;;;;;;0.00;0.00;;;;;;;;5047849;28;11490;-72
2023/01/18 11:07:21;;;;;;;;;;;;;;;;;;5051685;28;11553;-74
2023/01/18 11:09:50;;;;;;;;;0.00;0.00;;;;;;;;5049529;28;8908;-73
2023/01/18 11:12:33;;;;;;;;;0.00;0.00;;;;;;;;5049489;28;8789;-72
2023/01/18 11:15:13;;;;;;;;;0.00;0.00;;;;;;;;5068659;28;11482;-72
2023/01/18 11:17:40;;;;;;;;;1.00;0.00;;;;;;;;5067480;28;11550;-72
2023/01/18 11:20:14;;;;;;;;;0.00;0.00;;;;;;;;5069068;28;11432;-71
2023/01/18 11:22:51;;;;;;;;;0.00;0.00;;;;;;;;5069020;28;11630;-72
2023/01/18 11:25:16;;;;;;;;;0.00;0.00;;;;;;;;5065985;28;13510;-72
2023/01/18 11:27:42;;;;;;;;;0.00;0.00;;;;;;;;5068333;28;11465;-71
2023/01/18 11:30:07;;;;;;;;;;;;;;;;;;5071632;28;9527;-72
2023/01/18 11:32:32;;;;;;;;;;;;;;;;;;5070884;28;7619;-72
2023/01/18 11:34:58;;;;;;;;;;;;;;;;;;5070134;28;7537;-70
2023/01/18 11:37:23;;;;;;;;;;;;;;;;;;5070340;28;7532;-71
2023/01/18 11:39:48;;;;;;;;;;;;;;;;;;5070867;28;7528;-72
2023/01/18 11:42:14;;;;;;;;;;;;;;;;;;5070740;28;7595;-68
2023/01/18 11:44:39;;;;;;;;;;;;;;;;;;5070267;28;7609;-69
2023/01/18 11:47:04;;;;;;;;;;;;;;;;;;5068880;28;7520;-71
2023/01/18 11:49:30;;;;;;;;;;;;;;;;;;5069182;28;7559;-67
2023/01/18 11:52:31;;;;;;;;;;;;;;;;;;5127408;27;7524;-71
2023/01/18 11:54:56;;;;;;;;;;;;;;;;;;5128914;27;7524;-72
2023/01/18 11:57:21;;;;;;;;;;;;;;;;;;5125500;27;7538;-73
2023/01/18 11:59:46;;;;;;;;;;;;;;;;;;5125441;28;7516;-72
2023/01/18 12:02:11;;;;;;;;;;;;;;;;;;5124881;27;7523;-72
2023/01/18 12:04:37;;;;;;;;;;;;;;;;;;5121670;28;7543;-72
2023/01/18 12:07:02;;;;;;;;;;;;;;;;;;5109989;28;7532;-71
2023/01/18 12:09:27;;;;;;;;;;;;;;;;;;5108003;28;7936;-75
2023/01/18 12:11:52;;;;;;;;;;;;;;;;;;5118550;28;8099;-73
2023/01/18 12:14:17;;;;;;;;;;;;;;;;;;5128179;27;7568;-73
2023/01/18 12:16:42;;;;;;;;;;;;;;;;;;5128046;28;7516;-68
2023/01/18 12:19:07;;;;;;;;;;;;;;;;;;5128413;28;7520;-73
2023/01/18 12:21:32;;;;;;;;;;;;;;;;;;5125948;28;7531;-72
2023/01/18 12:25:18;;;;;;;;;1.00;0.00;;;;;;;;5103330;27;13424;-73
2023/01/18 12:27:46;;;;;;;;;2.00;1.00;;;;;;;;5105707;28;11408;-73
2023/01/18 12:30:26;;;;;;;;;6.50;6.50;;;;;;;;5106462;28;11457;-72
2023/01/18 12:32:56;;;;;;;;;0.25;0.25;;;;;;;;5086252;28;11457;-73
2023/01/18 12:35:44;;;;;;;;;2.00;1.00;;;;;;;;5079185;27;12223;-72
2023/01/18 12:38:27;;;;;;;;;0.25;0.00;;;;;;;;5045622;28;11535;-71
2023/01/18 12:40:58;;;;;;;;;1.00;0.00;;;;;;;;5046137;28;11483;-73
2023/01/18 12:43:35;;;;;;;;;3.00;0.00;;;;;;;;5058761;28;11506;-73
2023/01/18 12:46:01;;;;;;;;;1.50;0.50;;;;;;;;5044540;28;11483;-74
2023/01/18 12:48:32;;;;;;;;;2.00;1.00;;;;;;;;5043344;28;11482;-76
2023/01/18 12:50:59;;;;;;;;;0.00;0.00;;;;;;;;5042175;28;8819;-70
2023/01/18 12:53:40;;;;;;;;;0.00;0.00;;;;;;;;5076090;28;11495;-72
2023/01/18 12:56:11;;;;;;;;;1.75;1.25;;;;;;;;5043763;28;11570;-72
2023/01/18 12:58:37;;;;;;;;;2.00;1.00;;;;;;;;5076164;28;11532;-71
2023/01/18 13:01:04;;;;;;;;;5.50;1.00;;;;;;;;5043994;28;11518;-72
2023/01/18 13:03:43;;;;;;;;;1.50;0.00;;;;;;;;5044136;28;8912;-72
2023/01/18 13:06:09;;;;;;;;;0.00;0.00;;;;;;;;5044806;28;12367;-73
2023/01/18 13:08:41;;;;;;;;;1.00;0.00;;;;;;;;5045029;28;11471;-72
2023/01/18 13:11:13;;;;;;;;;0.00;0.00;;;;;;;;5045436;28;11459;-70
2023/01/18 13:13:40;;;;;;;;;0.00;0.00;;;;;;;;5056312;28;11481;-70
2023/01/18 13:18:46;;;;;;;;;0.00;0.00;;;;;;;;5104288;27;13462;-70
2023/01/18 13:21:30;;;;;;;;;0.50;0.00;;;;;;;;5106426;28;11453;-70
2023/01/18 13:23:55;;;;;;;;;1.00;0.00;;;;;;;;5106334;28;11537;-71
2023/01/18 13:26:25;;;;;;;;;0.00;0.00;;;;;;;;5106280;28;11546;-74
2023/01/18 13:29:09;;;;;;;;;0.00;0.00;;;;;;;;5105075;28;8827;-72
2023/01/18 13:31:35;;;;;;;;;2.00;0.00;;;;;;;;5106799;28;11465;-75
2023/01/18 13:34:02;;;;;;;;;0.00;0.00;;;;;;;;5105275;28;11487;-71
2023/01/18 13:36:27;;;;;;;;;0.50;0.50;;;;;;;;5105646;28;11457;-71
2023/01/18 13:39:06;;;;;;;;;0.75;0.00;;;;;;;;5105163;28;11438;-72
2023/01/18 13:41:31;;;;;;;;;0.00;0.00;;;;;;;;5105695;28;8874;-72
2023/01/18 13:44:00;;;;;;;;;0.00;0.00;;;;;;;;5105858;28;11524;-72
2023/01/18 13:46:25;;;;;;;;;0.25;0.00;;;;;;;;5104897;28;8973;-75
2023/01/18 13:49:00;;;;;;;;;0.00;0.00;;;;;;;;5105442;28;11449;-71
2023/01/18 13:51:35;;;;;;;;;0.00;0.00;;;;;;;;5102568;28;8839;-71
2023/01/18 13:54:01;;;;;;;;;0.00;0.00;;;;;;;;5104631;28;12228;-71
2023/01/18 13:56:27;;;;;;;;;0.00;0.00;;;;;;;;5105445;28;11608;-71
2023/01/18 13:59:11;;;;;;;;;0.00;0.00;;;;;;;;5104188;28;8859;-72
2023/01/18 14:01:37;;;;;;;;;0.00;0.00;;;;;;;;5104457;28;11465;-70
2023/01/18 14:04:25;;;;;;;;;1.00;1.00;;;;;;;;5104054;28;12243;-71
2023/01/18 14:06:51;;;;;;;;;1.00;0.50;;;;;;;;5096648;28;8812;-71
2023/01/18 14:09:18;;;;;;;;;1.00;1.00;;;;;;;;5103885;28;11457;-70
2023/01/18 14:11:52;;;;;;;;;2.00;2.00;;;;;;;;5105347;28;11475;-70
2023/01/18 14:14:18;;;;;;;;;3.25;2.00;;;;;;;;5104252;28;11468;-70
2023/01/18 14:16:57;;;;;;;;;2.50;2.50;;;;;;;;5102418;28;11481;-71
2023/01/18 14:19:26;;;;;;;;;2.00;2.00;;;;;;;;5104370;28;9502;-71
2023/01/18 14:22:10;;;;;;;;;2.75;2.00;;;;;;;;5103764;28;11448;-73
2023/01/18 14:24:41;;;;;;;;;1.25;1.25;;;;;;;;5105523;28;11489;-72
2023/01/18 14:27:08;;;;;;;;;2.00;1.00;;;;;;;;5090665;28;12286;-73
2023/01/18 14:29:34;;;;;;;;;0.75;0.75;;;;;;;;5087491;28;11427;-72
2023/01/18 14:32:01;;;;;;;;;1.00;1.00;;;;;;;;5091763;28;11435;-71
2023/01/18 14:34:29;;;;;;;;;4.00;0.75;;;;;;;;5091025;28;11441;-72
2023/01/18 16:52:31;;;;;;;;;10.00;5.00;;;;;;;;5078148;28;13410;-75
2023/01/18 16:54:56;;;;;;;;;2.00;2.00;;;;;;;;5062085;28;14309;-73
2023/01/18 16:57:22;;;;;;;;;3.00;3.00;;;;;;;;5066403;28;8789;-70
2023/01/18 16:59:48;;;;;;;;;8.00;7.00;;;;;;;;5062813;28;13460;-71
2023/01/18 17:02:14;;;;;;;;;9.00;8.60;;;;;;;;5061914;28;13503;-69
2023/01/18 17:04:39;;;;;;;;;1.00;1.00;;;;;;;;5060730;28;13579;-73
2023/01/18 17:07:07;;;;;;;;;9.00;5.00;;;;;;;;5060754;28;13537;-74
2023/01/18 17:09:33;;;;;;;;;5.00;5.00;;;;;;;;5063731;28;13518;-71
2023/01/18 17:11:58;;;;;;;;;11.25;8.75;;;;;;;;5062299;28;13495;-74
2023/01/18 17:14:23;;;;;;;;;9.00;6.67;;;;;;;;5060769;28;13426;-71
2023/01/18 17:16:49;;;;;;;;;5.50;4.50;;;;;;;;5061010;28;13648;-72
2023/01/18 17:19:16;;;;;;;;;7.50;7.50;;;;;;;;5062951;28;13412;-73
2023/01/18 17:21:41;;;;;;;;;13.00;9.00;;;;;;;;5061405;28;13454;-74
2023/01/18 17:24:07;;;;;;;;;6.00;6.00;;;;;;;;5062362;28;13523;-69
2023/01/18 17:26:33;;;;;;;;;7.00;7.00;;;;;;;;5062638;28;13496;-68
2023/01/18 17:28:58;;;;;;;;;16.75;14.50;;;;;;;;5076462;28;13595;-68
2023/01/18 17:31:25;;;;;;;;;9.75;9.75;;;;;;;;5078453;28;13562;-69
2023/01/18 17:33:50;;;;;;;;;4.25;4.25;;;;;;;;5066081;28;9577;-70
2023/01/18 17:36:15;;;;;;;;;5.00;4.00;;;;;;;;5061595;28;13489;-72
2023/01/18 17:38:41;;;;;;;;;5.00;5.00;;;;;;;;5061555;28;8801;-72
2023/01/18 17:41:06;;;;;;;;;2.00;2.00;;;;;;;;5063405;28;8820;-72
2023/01/18 17:43:32;;;;;;;;;4.50;4.50;;;;;;;;5064020;28;8829;-71
2023/01/18 17:45:59;;;;;;;;;;;;;;;;;;5066600;28;8797;-71
2023/01/18 17:48:24;;;;;;;;;;;;;;;;;;5066420;28;9074;-70
2023/01/18 17:50:49;;;;;;;;;5.80;5.80;;;;;;;;5063448;28;9451;-72
2023/01/18 17:53:15;;;;;;;;;8.00;6.50;;;;;;;;5063548;28;8839;-72
2023/01/18 17:55:40;;;;;;;;;3.50;2.00;;;;;;;;5061916;28;8851;-70
2023/01/18 17:58:05;;;;;;;;;7.00;7.00;;;;;;;;5062363;28;8813;-71
2023/01/18 18:00:30;;;;;;;;;4.00;4.00;;;;;;;;5060474;28;8809;-70
2023/01/18 18:02:56;;;;;;;;;7.00;5.00;;;;;;;;5053961;28;8801;-71
2023/01/18 18:05:21;;;;;;;;;7.25;6.00;;;;;;;;5050107;28;8982;-72